createdAt,value
2019-04-25T00:00:15.144Z,97938.03
2019-04-25T00:02:46.517Z,97936.41
2019-04-25T00:05:18.030Z,97947.91
2019-04-25T00:08:25.046Z,97947.94
2019-04-25T00:10:57.738Z,97941.02
2019-04-25T00:13:29.509Z,97955.77
2019-04-25T00:16:01.849Z,97957.16
2019-04-25T00:18:33.329Z,97953.70
2019-04-25T00:21:23.637Z,97962.52
2019-04-25T00:23:59.232Z,97960.88
2019-04-25T00:26:35.464Z,97963.00
2019-04-25T00:29:06.775Z,97961.42
2019-04-25T00:31:38.071Z,97965.43
2019-04-25T00:34:10.064Z,97954.73
2019-04-25T00:36:43.499Z,97957.16
2019-04-25T00:39:14.331Z,97975.36
2019-04-25T00:41:46.390Z,97968.75
2019-04-25T00:44:17.891Z,97971.98
2019-04-25T00:46:51.504Z,97975.73
2019-04-25T00:49:23.614Z,97975.73
2019-04-25T00:51:55.037Z,97994.69
2019-04-25T00:54:26.314Z,97988.52
2019-04-25T00:56:59.355Z,97989.85
2019-04-25T00:59:45.576Z,97989.85
2019-04-25T01:02:26.488Z,97995.16
2019-04-25T01:04:57.801Z,97988.75
2019-04-25T01:07:32.434Z,97991.70
2019-04-25T01:10:06.091Z,97991.70
2019-04-25T01:12:37.352Z,97981.03
2019-04-25T01:15:09.655Z,97979.19
2019-04-25T01:17:41.362Z,97993.92
2019-04-25T01:20:13.999Z,97990.44
2019-04-25T01:22:45.789Z,97998.22
2019-04-25T01:25:17.096Z,97998.22
2019-04-25T01:27:48.475Z,97994.47
2019-04-25T01:30:21.741Z,97998.48
2019-04-25T01:32:54.544Z,97979.27
2019-04-25T01:35:45.025Z,97985.39
2019-04-25T01:38:24.808Z,97993.95
2019-04-25T01:41:15.064Z,97993.95
2019-04-25T01:43:57.054Z,98002.77
2019-04-25T01:46:27.631Z,98002.77
2019-04-25T01:48:58.946Z,98001.18
2019-04-25T01:51:30.406Z,97997.45
2019-04-25T01:54:01.707Z,97997.45
2019-04-25T01:56:33.323Z,98004.66
2019-04-25T01:59:05.187Z,98004.66
2019-04-25T02:01:38.196Z,97997.47
2019-04-25T02:04:09.608Z,97997.47
2019-04-25T02:06:41.037Z,97989.46
2019-04-25T02:09:13.934Z,97997.75
2019-04-25T02:11:59.613Z,97997.75
2019-04-25T02:14:30.885Z,97998.78
2019-04-25T02:17:04.047Z,98000.08
2019-04-25T02:19:35.699Z,98006.78
2019-04-25T02:22:07.652Z,98034.58
2019-04-25T02:24:38.894Z,98036.44
2019-04-25T02:27:10.293Z,98028.17
2019-04-25T02:29:44.467Z,98018.55
2019-04-25T02:32:15.034Z,98027.63
2019-04-25T02:34:46.372Z,98027.63
2019-04-25T02:37:17.646Z,98030.29
2019-04-25T02:39:49.064Z,98027.86
2019-04-25T02:42:20.329Z,98027.86
2019-04-25T02:45:10.081Z,98031.28
2019-04-25T02:48:07.045Z,98031.28
2019-04-25T02:50:51.443Z,98030.95
2019-04-25T02:53:44.649Z,98048.29
2019-04-25T02:56:30.281Z,98074.64
2019-04-25T02:58:49.821Z,98074.64
2019-04-25T03:01:25.147Z,98070.63
2019-04-25T03:03:54.709Z,98083.67
2019-04-25T03:06:25.987Z,98088.97
2019-04-25T03:08:58.074Z,98097.43
2019-04-25T03:11:30.560Z,98094.17
2019-04-25T03:14:02.157Z,98103.52
2019-04-25T03:16:35.240Z,98103.52
2019-04-25T03:19:40.717Z,98106.47
2019-04-25T03:22:15.022Z,98113.08
2019-04-25T03:24:46.630Z,98116.44
2019-04-25T03:27:18.011Z,98116.91
2019-04-25T03:29:50.848Z,98116.91
2019-04-25T03:32:27.835Z,98119.23
2019-04-25T03:34:55.202Z,98119.23
2019-04-25T03:37:26.564Z,98123.13
2019-04-25T03:39:57.820Z,98111.94
2019-04-25T03:42:29.361Z,98111.94
2019-04-25T03:45:03.271Z,98125.06
2019-04-25T03:47:34.969Z,98125.06
2019-04-25T03:50:07.255Z,98132.20
2019-04-25T03:52:39.333Z,98138.58
2019-04-25T03:55:10.744Z,98136.98
2019-04-25T03:57:42.109Z,98137.77
2019-04-25T04:00:14.545Z,98145.48
2019-04-25T04:02:45.951Z,98143.31
2019-04-25T04:05:17.229Z,98142.24
2019-04-25T04:07:48.510Z,98142.24
2019-04-25T04:10:21.168Z,98147.33
2019-04-25T04:12:54.178Z,98156.67
2019-04-25T04:15:28.124Z,98163.00
2019-04-25T04:18:39.118Z,98163.00
2019-04-25T04:21:19.461Z,98156.83
2019-04-25T04:23:57.216Z,98163.44
2019-04-25T04:26:28.622Z,98169.83
2019-04-25T04:28:59.922Z,98179.65
2019-04-25T04:31:31.171Z,98181.79
2019-04-25T04:34:03.763Z,98184.55
2019-04-25T04:36:35.181Z,98191.52
2019-04-25T04:39:07.770Z,98193.67
2019-04-25T04:41:40.036Z,98192.13
2019-04-25T04:44:11.864Z,98197.28
2019-04-25T04:46:43.987Z,98195.53
2019-04-25T04:49:15.367Z,98204.19
2019-04-25T04:51:46.647Z,98205.91
2019-04-25T04:54:18.065Z,98219.80
2019-04-25T04:56:49.313Z,98214.31
2019-04-25T04:59:20.703Z,98214.31
2019-04-25T05:02:03.355Z,98227.50
2019-04-25T05:04:43.792Z,98229.45
2019-04-25T05:07:34.019Z,98228.75
2019-04-25T05:10:05.388Z,98228.16
2019-04-25T05:12:36.653Z,98232.16
2019-04-25T05:15:08.595Z,98235.23
2019-04-25T05:17:40.041Z,98238.03
2019-04-25T05:20:12.017Z,98242.92
2019-04-25T05:22:44.583Z,98255.50
2019-04-25T05:25:17.677Z,98251.27
2019-04-25T05:28:00.131Z,98258.74
2019-04-25T05:30:27.890Z,98274.72
2019-04-25T05:32:59.231Z,98278.00
2019-04-25T05:35:30.601Z,98237.89
2019-04-25T05:38:03.413Z,98280.20
2019-04-25T05:40:39.322Z,98269.52
2019-04-25T05:43:13.383Z,98263.89
2019-04-25T05:45:45.368Z,98263.89
2019-04-25T05:48:17.184Z,98273.57
2019-04-25T05:50:48.518Z,98273.57
2019-04-25T05:53:19.892Z,98274.43
2019-04-25T05:55:51.231Z,98277.36
2019-04-25T05:58:24.526Z,98277.36
2019-04-25T06:00:56.197Z,98270.12
2019-04-25T06:03:27.649Z,98277.60
2019-04-25T06:05:59.126Z,98280.20
2019-04-25T06:08:32.145Z,98272.36
2019-04-25T06:11:14.140Z,98278.21
2019-04-25T06:13:50.787Z,98278.70
2019-04-25T06:16:29.526Z,98282.62
2019-04-25T06:19:20.758Z,98285.20
2019-04-25T06:21:53.527Z,98285.63
2019-04-25T06:24:47.737Z,98288.19
2019-04-25T06:27:27.108Z,98292.16
2019-04-25T06:30:05.443Z,98292.89
2019-04-25T06:32:36.712Z,98303.20
2019-04-25T06:35:08.658Z,98300.89
2019-04-25T06:37:39.948Z,98299.75
2019-04-25T06:40:11.815Z,98305.84
2019-04-25T06:42:43.518Z,98310.30
2019-04-25T06:45:55.235Z,98303.66
2019-04-25T06:48:53.415Z,98304.02
2019-04-25T06:51:44.054Z,98304.81
2019-04-25T06:54:16.857Z,98309.74
2019-04-25T06:56:48.300Z,98314.89
2019-04-25T06:59:20.008Z,98314.16
2019-04-25T07:01:51.325Z,98312.19
2019-04-25T07:04:25.120Z,98313.64
2019-04-25T07:06:55.662Z,98309.78
2019-04-25T07:09:29.566Z,98309.97
2019-04-25T07:12:00.006Z,98309.75
2019-04-25T07:14:31.594Z,98323.07
2019-04-25T07:17:04.309Z,98319.11
2019-04-25T07:19:35.945Z,98315.52
2019-04-25T07:22:07.309Z,98320.18
2019-04-25T07:24:38.694Z,98312.16
2019-04-25T07:27:28.406Z,98317.42
2019-04-25T07:30:31.929Z,98323.11
2019-04-25T07:33:23.338Z,98316.25
2019-04-25T07:35:57.107Z,98315.33
2019-04-25T07:38:29.086Z,98322.60
2019-04-25T07:41:03.521Z,98315.89
2019-04-25T07:43:36.088Z,98318.52
2019-04-25T07:46:08.079Z,98308.28
2019-04-25T07:48:39.460Z,98307.80
2019-04-25T07:51:11.007Z,98306.45
2019-04-25T07:53:43.636Z,98314.83
2019-04-25T07:56:15.191Z,98301.14
2019-04-25T07:58:52.221Z,98310.70
2019-04-25T08:01:19.552Z,98295.20
2019-04-25T08:03:50.868Z,98310.36
2019-04-25T08:06:24.132Z,98304.69
2019-04-25T08:08:55.295Z,98307.37
2019-04-25T08:11:28.045Z,98312.02
2019-04-25T08:14:08.332Z,98312.02
2019-04-25T08:16:41.950Z,98311.61
2019-04-25T08:19:13.721Z,98311.94
2019-04-25T08:21:45.218Z,98313.20
2019-04-25T08:24:16.695Z,98301.56
2019-04-25T08:26:47.995Z,98295.70
2019-04-25T08:29:19.288Z,98305.91
2019-04-25T08:31:50.639Z,98300.50
2019-04-25T08:34:21.993Z,98302.41
2019-04-25T08:36:54.293Z,98303.03
2019-04-25T08:39:25.698Z,98302.78
2019-04-25T08:41:57.069Z,98299.52
2019-04-25T08:44:28.427Z,98305.58
2019-04-25T08:46:59.772Z,98299.77
2019-04-25T08:49:40.176Z,98292.65
2019-04-25T08:52:14.332Z,98292.84
2019-04-25T08:54:57.637Z,98287.28
2019-04-25T08:57:46.429Z,98288.27
2019-04-25T09:00:31.663Z,98289.16
2019-04-25T09:03:06.861Z,98279.52
2019-04-25T09:05:44.055Z,98266.44
2019-04-25T09:08:14.563Z,98271.47
2019-04-25T09:10:45.906Z,98260.91
2019-04-25T09:13:17.276Z,98264.94
2019-04-25T09:15:48.621Z,98250.77
2019-04-25T09:18:19.962Z,98264.54
2019-04-25T09:20:51.323Z,98248.89
2019-04-25T09:23:23.652Z,98251.76
2019-04-25T09:25:55.034Z,98232.86
2019-04-25T09:28:26.313Z,98234.81
2019-04-25T09:30:57.620Z,98236.10
2019-04-25T09:33:28.931Z,98232.24
2019-04-25T09:36:00.202Z,98233.76
2019-04-25T09:38:31.624Z,98228.33
2019-04-25T09:41:03.833Z,98231.50
2019-04-25T09:43:35.844Z,98244.00
2019-04-25T09:46:22.208Z,98235.09
2019-04-25T09:49:15.286Z,98234.88
2019-04-25T09:52:03.988Z,98225.66
2019-04-25T09:54:55.160Z,98216.34
2019-04-25T09:57:53.218Z,98221.53
2019-04-25T10:00:33.411Z,98198.25
2019-04-25T10:03:05.436Z,98222.24
2019-04-25T10:05:37.487Z,98211.04
2019-04-25T10:08:09.785Z,98218.98
2019-04-25T10:10:42.472Z,98212.11
2019-04-25T10:13:13.986Z,98208.45
2019-04-25T10:16:08.994Z,98189.63
2019-04-25T10:18:41.323Z,98195.30
2019-04-25T10:21:14.276Z,98199.63
2019-04-25T10:23:46.789Z,98198.03
2019-04-25T10:26:21.551Z,98179.43
2019-04-25T10:28:52.816Z,98191.80
2019-04-25T10:31:24.227Z,98191.28
2019-04-25T10:33:55.495Z,98172.55
2019-04-25T10:36:26.981Z,98167.04
2019-04-25T10:39:07.655Z,98165.58
2019-04-25T10:41:33.642Z,98164.02
2019-04-25T10:44:04.936Z,98164.67
2019-04-25T10:46:37.924Z,98154.19
2019-04-25T10:49:09.790Z,98149.89
2019-04-25T10:51:42.181Z,98138.03
2019-04-25T10:54:14.644Z,98156.76
2019-04-25T10:56:47.390Z,98139.33
2019-04-25T10:59:19.517Z,98136.31
2019-04-25T11:01:50.915Z,98152.17
2019-04-25T11:04:31.111Z,98143.92
2019-04-25T11:07:03.732Z,98143.41
2019-04-25T11:09:35.092Z,98131.50
2019-04-25T11:12:09.265Z,98129.28
2019-04-25T11:14:42.378Z,98124.05
2019-04-25T11:17:15.512Z,98129.89
2019-04-25T11:19:47.001Z,98120.89
2019-04-25T11:22:18.301Z,98113.74
2019-04-25T11:24:50.654Z,98119.41
2019-04-25T11:27:23.751Z,98117.66
2019-04-25T11:30:08.462Z,98115.75
2019-04-25T11:32:28.540Z,98110.56
2019-04-25T11:34:59.985Z,98116.19
2019-04-25T11:37:34.184Z,98116.61
2019-04-25T11:40:32.007Z,98109.44
2019-04-25T11:43:04.269Z,98099.04
2019-04-25T11:45:37.058Z,98102.39
2019-04-25T11:48:10.141Z,98095.52
2019-04-25T11:50:44.063Z,98087.35
2019-04-25T11:53:15.262Z,98091.05
2019-04-25T11:55:48.162Z,98095.02
2019-04-25T11:58:19.909Z,98089.85
2019-04-25T12:00:51.388Z,98107.38
2019-04-25T12:03:24.583Z,98092.69
2019-04-25T12:05:56.178Z,98095.59
2019-04-25T12:08:30.399Z,98085.97
2019-04-25T12:11:01.907Z,98085.84
2019-04-25T12:13:34.545Z,98083.81
2019-04-25T12:16:06.081Z,98080.97
2019-04-25T12:18:37.494Z,98078.69
2019-04-25T12:21:08.785Z,98074.22
2019-04-25T12:23:50.760Z,98064.26
2019-04-25T12:26:22.061Z,98067.57
2019-04-25T12:28:54.765Z,98063.89
2019-04-25T12:31:26.549Z,98057.20
2019-04-25T12:33:58.008Z,98059.81
2019-04-25T12:36:29.306Z,98054.01
2019-04-25T12:39:01.101Z,98055.30
2019-04-25T12:41:32.480Z,98058.74
2019-04-25T12:44:21.445Z,98040.02
2019-04-25T12:46:54.548Z,98044.92
2019-04-25T12:49:26.492Z,98053.89
2019-04-25T12:51:58.598Z,98045.94
2019-04-25T12:54:30.145Z,98031.27
2019-04-25T12:57:01.540Z,98034.92
2019-04-25T12:59:32.846Z,98036.56
2019-04-25T13:02:04.571Z,98032.75
2019-04-25T13:04:35.878Z,98022.69
2019-04-25T13:07:07.488Z,98018.34
2019-04-25T13:09:38.821Z,98016.39
2019-04-25T13:12:10.705Z,98015.59
2019-04-25T13:14:42.137Z,98011.13
2019-04-25T13:17:13.651Z,98012.73
2019-04-25T13:19:47.475Z,98001.63
2019-04-25T13:22:18.910Z,97993.53
2019-04-25T13:24:53.050Z,97992.41
2019-04-25T13:27:30.545Z,97989.45
2019-04-25T13:30:26.527Z,97987.78
2019-04-25T13:33:21.279Z,97984.51
2019-04-25T13:36:02.382Z,97969.64
2019-04-25T13:38:33.720Z,97971.32
2019-04-25T13:41:05.174Z,97968.19
2019-04-25T13:43:36.557Z,97967.31
2019-04-25T13:46:07.881Z,97960.70
2019-04-25T13:48:39.301Z,97960.34
2019-04-25T13:51:10.717Z,97959.63
2019-04-25T13:53:43.476Z,97953.88
2019-04-25T13:56:14.861Z,97943.08
2019-04-25T13:58:46.358Z,97945.66
2019-04-25T14:01:18.670Z,97938.43
2019-04-25T14:03:50.063Z,97937.35
2019-04-25T14:06:21.425Z,97931.61
2019-04-25T14:09:03.287Z,97930.25
2019-04-25T14:11:35.704Z,97935.58
2019-04-25T14:14:13.039Z,97929.91
2019-04-25T14:17:14.133Z,97925.80
2019-04-25T14:20:04.294Z,97926.20
2019-04-25T14:22:35.627Z,97923.91
2019-04-25T14:25:08.755Z,97911.11
2019-04-25T14:27:40.166Z,97912.63
2019-04-25T14:30:13.668Z,97912.45
2019-04-25T14:32:46.654Z,97912.58
2019-04-25T14:35:18.092Z,97899.51
2019-04-25T14:37:49.402Z,97906.79
2019-04-25T14:40:21.597Z,97907.63
2019-04-25T14:42:53.881Z,97904.80
2019-04-25T14:45:25.191Z,97894.45
2019-04-25T14:47:56.476Z,97909.17
2019-04-25T14:50:27.842Z,97909.12
2019-04-25T14:52:59.120Z,97900.52
2019-04-25T14:55:41.850Z,97901.84
2019-04-25T14:58:14.992Z,97899.02
2019-04-25T15:00:48.465Z,97904.50
2019-04-25T15:03:19.787Z,97906.26
2019-04-25T15:05:51.157Z,97901.74
2019-04-25T15:08:22.481Z,97903.03
2019-04-25T15:10:53.829Z,97902.70
2019-04-25T15:13:25.826Z,97899.12
2019-04-25T15:15:57.169Z,97894.13
2019-04-25T15:18:28.822Z,97894.53
2019-04-25T15:21:00.203Z,97895.91
2019-04-25T15:23:32.080Z,97891.48
2019-04-25T15:26:03.352Z,97899.38
2019-04-25T15:28:34.651Z,97894.54
2019-04-25T15:31:05.972Z,97888.03
2019-04-25T15:33:37.370Z,97902.83
2019-04-25T15:36:20.079Z,97903.72
2019-04-25T15:38:57.592Z,97896.36
2019-04-25T15:41:36.331Z,97890.71
2019-04-25T15:44:26.672Z,97893.80
2019-04-25T15:46:59.106Z,97896.94
2019-04-25T15:49:31.250Z,97893.67
2019-04-25T15:52:02.522Z,97898.07
2019-04-25T15:54:33.948Z,97893.11
2019-04-25T15:57:05.275Z,97884.89
2019-04-25T15:59:36.926Z,97887.77
2019-04-25T16:02:10.273Z,97879.09
2019-04-25T16:04:41.704Z,97881.02
2019-04-25T16:07:13.201Z,97870.42
2019-04-25T16:09:44.547Z,97875.88
2019-04-25T16:12:16.718Z,97873.31
2019-04-25T16:14:48.029Z,97870.88
2019-04-25T16:17:19.474Z,97871.59
2019-04-25T16:19:50.850Z,97879.92
2019-04-25T16:22:22.197Z,97877.92
2019-04-25T16:24:53.660Z,97875.08
2019-04-25T16:27:24.928Z,97872.53
2019-04-25T16:29:56.302Z,97878.50
2019-04-25T16:32:28.157Z,97875.81
2019-04-25T16:35:00.343Z,97882.15
2019-04-25T16:37:32.420Z,97887.15
2019-04-25T16:40:04.050Z,97880.83
2019-04-25T16:42:35.942Z,97889.83
2019-04-25T16:45:08.037Z,97886.36
2019-04-25T16:47:39.529Z,97887.09
2019-04-25T16:50:11.182Z,97892.09
2019-04-25T16:52:42.654Z,97883.41
2019-04-25T16:55:14.541Z,97887.52
2019-04-25T16:57:46.005Z,97885.03
2019-04-25T17:00:36.236Z,97886.94
2019-04-25T17:03:07.771Z,97890.63
2019-04-25T17:05:40.117Z,97889.21
2019-04-25T17:08:12.023Z,97895.63
2019-04-25T17:10:43.391Z,97889.19
2019-04-25T17:13:14.950Z,97888.94
2019-04-25T17:15:55.212Z,97891.48
2019-04-25T17:18:31.922Z,97889.52
2019-04-25T17:21:06.867Z,97887.54
2019-04-25T17:23:38.127Z,97886.89
2019-04-25T17:26:09.487Z,97893.52
2019-04-25T17:28:42.455Z,97896.03
2019-04-25T17:31:32.411Z,97894.88
2019-04-25T17:34:17.411Z,97900.70
2019-04-25T17:36:58.791Z,97902.72
2019-04-25T17:39:35.450Z,97903.63
2019-04-25T17:42:07.027Z,97908.72
2019-04-25T17:44:38.439Z,97906.55
2019-04-25T17:47:09.889Z,97906.97
2019-04-25T17:49:42.334Z,97911.81
2019-04-25T17:52:14.583Z,97907.81
2019-04-25T17:54:46.233Z,97915.13
2019-04-25T17:57:17.620Z,97922.48
2019-04-25T17:59:49.994Z,97923.29
2019-04-25T18:02:21.467Z,97930.24
2019-04-25T18:04:52.896Z,97933.39
2019-04-25T18:07:24.233Z,97945.33
2019-04-25T18:09:55.530Z,97943.06
2019-04-25T18:12:26.962Z,97948.77
2019-04-25T18:14:59.928Z,97950.62
2019-04-25T18:17:31.639Z,97958.47
2019-04-25T18:20:10.108Z,97954.06
2019-04-25T18:23:00.402Z,97955.42
2019-04-25T18:26:02.815Z,97952.23
2019-04-25T18:28:52.255Z,97956.09
2019-04-25T18:31:23.655Z,97954.94
2019-04-25T18:33:58.019Z,97968.96
2019-04-25T18:36:45.050Z,97971.17
2019-04-25T18:39:27.470Z,97981.48
2019-04-25T18:42:22.254Z,97983.02
2019-04-25T18:44:53.567Z,97984.85
2019-04-25T18:47:24.961Z,97983.88
2019-04-25T18:49:56.238Z,97991.61
2019-04-25T18:52:49.214Z,97983.67
2019-04-25T18:55:27.099Z,97975.92
2019-04-25T18:58:15.725Z,97966.28
2019-04-25T19:01:14.990Z,97958.94
2019-04-25T19:04:01.559Z,97951.99
2019-04-25T19:06:32.850Z,97956.08
2019-04-25T19:09:05.983Z,97953.06
2019-04-25T19:11:39.563Z,97935.28
2019-04-25T19:14:10.608Z,97939.61
2019-04-25T19:16:42.986Z,97942.44
2019-04-25T19:19:14.325Z,97932.58
2019-04-25T19:21:45.611Z,97943.57
2019-04-25T19:24:17.059Z,97935.05
2019-04-25T19:26:48.362Z,97940.29
2019-04-25T19:29:19.651Z,97938.89
2019-04-25T19:31:53.011Z,97939.34
2019-04-25T19:34:24.109Z,97953.09
2019-04-25T19:36:55.461Z,97952.58
2019-04-25T19:39:28.515Z,97968.81
2019-04-25T19:42:21.644Z,97961.45
2019-04-25T19:44:59.653Z,97972.48
2019-04-25T19:47:31.069Z,97973.00
2019-04-25T19:50:02.362Z,97968.55
2019-04-25T19:52:35.262Z,97980.78
2019-04-25T19:55:07.142Z,97971.95
2019-04-25T19:57:38.395Z,97963.38
2019-04-25T20:00:09.959Z,97965.34
2019-04-25T20:02:50.787Z,97969.00
2019-04-25T20:05:30.927Z,97972.47
2019-04-25T20:08:14.629Z,97979.86
2019-04-25T20:10:53.569Z,97974.99
2019-04-25T20:13:24.878Z,97979.19
2019-04-25T20:15:56.239Z,97982.00
2019-04-25T20:18:27.719Z,97976.87
2019-04-25T20:20:59.008Z,97979.50
2019-04-25T20:23:30.336Z,97979.43
2019-04-25T20:26:01.666Z,97981.64
2019-04-25T20:28:33.074Z,97971.98
2019-04-25T20:31:04.396Z,97970.44
2019-04-25T20:33:35.970Z,97979.52
2019-04-25T20:38:40.432Z,97966.48
2019-04-25T20:41:11.894Z,97972.86
2019-04-25T20:43:43.343Z,97976.50
2019-04-25T20:46:14.792Z,97976.18
2019-04-25T20:48:46.885Z,97969.91
2019-04-25T20:51:18.513Z,97976.39
2019-04-25T20:53:50.712Z,97976.22
2019-04-25T20:56:22.003Z,97975.16
2019-04-25T20:58:53.539Z,97975.47
2019-04-25T21:01:24.934Z,97960.80
2019-04-25T21:03:56.230Z,97962.25
2019-04-25T21:06:32.146Z,97968.30
2019-04-25T21:09:03.732Z,97969.19
2019-04-25T21:11:35.085Z,97971.56
2019-04-25T21:14:23.897Z,97977.03
2019-04-25T21:17:14.855Z,97979.86
2019-04-25T21:19:48.725Z,97969.22
2019-04-25T21:22:19.575Z,97967.45
2019-04-25T21:24:51.649Z,97967.62
2019-04-25T21:27:23.192Z,97973.39
2019-04-25T21:29:55.550Z,97973.30
2019-04-25T21:32:27.007Z,97978.66
2019-04-25T21:34:59.167Z,97972.58
2019-04-25T21:37:30.544Z,97977.78
2019-04-25T21:40:27.198Z,97986.60
2019-04-25T21:43:10.708Z,97982.84
2019-04-25T21:45:42.346Z,97989.66
2019-04-25T21:48:14.026Z,97995.38
2019-04-25T21:50:45.628Z,97993.14
2019-04-25T21:53:19.008Z,97987.30
2019-04-25T21:55:50.746Z,97992.44
2019-04-25T21:58:22.387Z,97985.35
2019-04-25T22:01:18.679Z,97985.09
2019-04-25T22:03:50.136Z,97984.33
2019-04-25T22:06:21.900Z,97975.76
2019-04-25T22:08:54.304Z,97979.11
2019-04-25T22:11:26.491Z,97970.70
2019-04-25T22:13:57.943Z,97970.65
2019-04-25T22:16:29.706Z,97978.52
2019-04-25T22:19:02.025Z,97977.28
2019-04-25T22:21:41.390Z,97982.58
2019-04-25T22:24:15.222Z,97977.86
2019-04-25T22:26:46.728Z,97971.76
2019-04-25T22:29:18.535Z,97975.09
2019-04-25T22:32:01.486Z,97969.75
2019-04-25T22:34:51.337Z,97973.82
2019-04-25T22:37:11.576Z,97976.88
2019-04-25T22:39:43.153Z,97978.89
2019-04-25T22:42:14.434Z,97995.33
2019-04-25T22:44:45.810Z,97984.27
2019-04-25T22:47:17.699Z,97984.84
2019-04-25T22:49:49.216Z,97985.64
2019-04-25T22:52:20.709Z,97983.30
2019-04-25T22:54:52.100Z,97988.95
2019-04-25T22:57:23.635Z,97991.66
2019-04-25T22:59:55.061Z,97987.99
2019-04-25T23:02:32.830Z,97995.27
2019-04-25T23:05:16.119Z,97990.97
2019-04-25T23:07:45.325Z,97985.91
2019-04-25T23:10:16.928Z,97983.81
2019-04-25T23:12:48.265Z,97994.53
2019-04-25T23:15:19.648Z,97987.08
2019-04-25T23:17:51.223Z,97990.08
2019-04-25T23:20:22.868Z,97994.69
2019-04-25T23:22:54.198Z,98004.67
2019-04-25T23:25:30.946Z,98008.19
2019-04-25T23:28:27.345Z,98005.55
2019-04-25T23:31:29.625Z,97994.33
2019-04-25T23:34:01.122Z,97984.15
2019-04-25T23:36:32.409Z,97977.25
2019-04-25T23:39:07.524Z,97986.38
2019-04-25T23:41:39.551Z,97982.67
2019-04-25T23:44:10.857Z,97985.09
2019-04-25T23:46:43.151Z,97984.35
2019-04-25T23:49:14.795Z,97982.31
2019-04-25T23:51:46.391Z,97973.31
2019-04-25T23:54:17.785Z,97972.53
2019-04-25T23:56:49.118Z,97971.73
2019-04-25T23:59:20.444Z,97972.25
